Hovedside
METAR-TAF:

METAR-TAF

Lufthavner :

Åre Östersund lufthavn

Östersund-Frösön, Sverige

breddegrad: 63-11N, lengdegrad: 014-30E, høyde over havet: 376 m

Gjeldene værobservasjon

Denne rapporten ble laget for 18 minutter siden, klokken 10:50 UTC
Vind 23 kt fra Vest-nordvest
Temperatur 13°C
Luftfuktighet 72%
Trykk 1006 hPa
Sikt 10 km eller mer

METAR: ESNZ 191050Z AUTO 29023KT 9999 SCT029/// BKN090/// 13/08 Q1006

Tid: 13:08 (11:08 UTC)

Varsel

Denne rapporten ble laget for 2 timer og 38 minutter siden, klokken 08:30 UTC
Varsel gyldig fra 19. klokken 09 UTC til 19. klokken 11 UTC
Vind 16 kt fra Vest
Sikt 10 km eller mer
Brutte skyer i en høyde av 2000 ft
Sannsynlighet 40%
fra 19. klokken 10 UTC til 19. klokken 11 UTC
Brutte skyer i en høyde av 2500 ft, Tårnskyer (cumulus).

TAF: ESNZ 190830Z 1909/1911 28016KT 9999 BKN020 PROB40 1910/1911 BKN025TCU

Værobservasjoner og værvarsel for over 4000 flyplasser (METAR- og TAF-rapporter).

Tilgjengelige stasjoner er representert av de røde og gule prikkene på kartet.

Hold musepekeren over prikken for å se navnet på stasjonen.

Klikk så for å se værobservasjoner og -varsler.

For å forandre kartet kan du klikke på den grønne knappen med svart kryss for å zoome inn, på den grønne knappen med strek for å zoome ut, eller på de grønne pilene for å se tilstøtende kart.


METAR-TAF: